Time;durP1;ratioP1;P1;durP2;ratioP2;P2;SDS_P1;SDS_P2;PMS_P1;PMS_P2;Temp;Humidity;BMP_temperature;BMP_pressure;BME280_temperature;BME280_humidity;BME280_pressure;Samples;Min_cycle;Max_cycle;Signal;HPM_P1;HPM_P2
2023/04/17 00:00:42;;;;;;;10.82;9.23;;;;;;;4.52;100.00;93256.25;2543432;23;20040;-82
2023/04/17 00:01:43;;;;;;;12.90;9.45;;;;;;;4.53;100.00;93249.88;2555555;23;20013;-82
2023/04/17 00:02:45;;;;;;;11.02;8.68;;;;;;;4.54;100.00;93261.97;2554915;23;20028;-82
2023/04/17 00:03:46;;;;;;;11.05;9.18;;;;;;;4.53;100.00;93255.16;2555809;23;20061;-82
2023/04/17 00:04:47;;;;;;;12.82;8.73;;;;;;;4.69;100.00;93254.81;2543596;23;20045;-82
2023/04/17 00:05:48;;;;;;;11.88;8.90;;;;;;;4.61;100.00;93253.25;2555208;23;20013;-83
2023/04/17 00:06:52;;;;;;;13.07;9.13;;;;;;;4.58;100.00;93254.03;2554844;23;20388;-82
2023/04/17 00:07:53;;;;;;;11.60;8.82;;;;;;;4.54;100.00;93254.00;2554830;23;20039;-81
2023/04/17 00:08:54;;;;;;;11.15;8.80;;;;;;;4.59;100.00;93252.91;2531166;23;20409;-82
2023/04/17 00:09:55;;;;;;;11.40;8.63;;;;;;;4.54;100.00;93249.47;2531534;23;20225;-82
2023/04/17 00:10:56;;;;;;;11.77;9.20;;;;;;;4.55;100.00;93248.34;2543519;23;19998;-82
2023/04/17 00:11:58;;;;;;;10.73;8.90;;;;;;;4.66;100.00;93244.97;2555660;23;20480;-81
2023/04/17 00:12:59;;;;;;;11.52;8.27;;;;;;;4.71;100.00;93250.66;2542650;23;20455;-82
2023/04/17 00:14:00;;;;;;;12.20;8.77;;;;;;;4.64;100.00;93250.63;2530714;23;20355;-82
2023/04/17 00:15:02;;;;;;;11.45;8.65;;;;;;;4.63;100.00;93243.84;2530839;23;20006;-82
2023/04/17 00:16:03;;;;;;;11.27;8.95;;;;;;;4.59;100.00;93242.31;2531560;23;20006;-82
2023/04/17 00:17:04;;;;;;;13.50;9.48;;;;;;;4.57;100.00;93245.34;2531253;23;20433;-83
2023/04/17 00:18:06;;;;;;;10.80;8.68;;;;;;;4.56;100.00;93243.78;2542441;23;20092;-83
2023/04/17 00:19:07;;;;;;;12.63;8.80;;;;;;;4.54;100.00;93240.78;2543167;23;20193;-82
2023/04/17 00:20:09;;;;;;;11.60;8.77;;;;;;;4.52;100.00;93240.38;2530387;23;20029;-84
2023/04/17 00:21:11;;;;;;;13.55;9.15;;;;;;;4.53;100.00;93242.66;2531400;23;20409;-82
2023/04/17 00:22:12;;;;;;;11.57;9.02;;;;;;;4.60;100.00;93241.91;2543122;23;20005;-83
2023/04/17 00:23:12;;;;;;;11.77;8.73;;;;;;;4.61;100.00;93240.81;2555920;23;20079;-83
2023/04/17 00:24:13;;;;;;;11.23;9.55;;;;;;;4.60;100.00;93236.63;2555303;23;20336;-83
2023/04/17 00:25:14;;;;;;;11.57;9.20;;;;;;;4.61;100.00;93245.31;2530268;23;20393;-82
2023/04/17 00:26:18;;;;;;;10.23;8.25;;;;;;;4.62;100.00;93244.22;2543100;23;20080;-81
2023/04/17 00:27:19;;;;;;;10.20;8.10;;;;;;;4.59;100.00;93239.66;2556232;23;20361;-82
2023/04/17 00:28:24;;;;;;;9.73;8.38;;;;;;;4.58;100.00;93243.44;2543164;23;20009;-83
2023/04/17 00:29:25;;;;;;;9.10;7.25;;;;;;;4.58;100.00;93246.09;2543648;23;20425;-81
2023/04/17 00:30:26;;;;;;;9.23;7.10;;;;;;;4.54;100.00;93240.78;2531164;23;20010;-82
2023/04/17 00:31:28;;;;;;;9.10;7.13;;;;;;;4.60;100.00;93238.53;2542708;23;20333;-82
2023/04/17 00:32:29;;;;;;;8.50;7.32;;;;;;;4.61;100.00;93240.03;2530298;23;20009;-82
2023/04/17 00:33:33;;;;;;;7.70;6.85;;;;;;;4.58;100.00;93244.19;2530933;23;20481;-82
2023/04/17 00:34:35;;;;;;;9.85;7.28;;;;;;;4.57;100.00;93240.03;2543136;23;20012;-82
2023/04/17 00:35:36;;;;;;;8.23;6.80;;;;;;;4.57;100.00;93241.94;2542448;23;20009;-82
2023/04/17 00:36:37;;;;;;;9.05;7.15;;;;;;;4.59;100.00;93244.94;2531140;23;20006;-81
2023/04/17 00:37:39;;;;;;;9.95;7.07;;;;;;;4.64;100.00;93239.28;2518505;23;20434;-82
2023/04/17 00:38:42;;;;;;;9.10;6.50;;;;;;;4.65;100.00;93235.50;2518736;23;20003;-82
2023/04/17 00:39:43;;;;;;;7.82;6.47;;;;;;;4.62;100.00;93239.69;2519575;23;20434;-82
2023/04/17 00:40:45;;;;;;;8.02;6.65;;;;;;;4.62;100.00;93231.72;2518686;23;20006;-82
2023/04/17 00:41:46;;;;;;;8.95;6.38;;;;;;;4.60;100.00;93233.22;2531347;23;20009;-81
2023/04/17 00:42:51;;;;;;;8.13;6.25;;;;;;;4.62;100.00;93241.56;2530581;23;20042;-82
2023/04/17 00:43:52;;;;;;;6.32;5.63;;;;;;;4.61;100.00;93232.09;2531895;23;20338;-82
2023/04/17 00:44:53;;;;;;;6.90;6.18;;;;;;;4.58;100.00;93236.25;2530289;23;20021;-82
2023/04/17 00:45:54;;;;;;;7.93;6.10;;;;;;;4.55;100.00;93234.34;2530416;23;20364;-83
2023/04/17 00:46:55;;;;;;;6.90;5.97;;;;;;;4.58;100.00;93236.25;2531019;23;20040;-82
2023/04/17 00:47:58;;;;;;;6.80;6.05;;;;;;;4.60;100.00;93231.34;2543226;23;20551;-83
2023/04/17 00:49:02;;;;;;;6.68;5.63;;;;;;;4.58;100.00;93230.97;2554540;23;20024;-83
2023/04/17 00:50:04;;;;;;;9.85;6.43;;;;;;;4.54;100.00;93228.31;2555196;23;20523;-84
2023/04/17 00:51:05;;;;;;;7.25;6.05;;;;;;;4.57;100.00;93231.34;2541903;23;20052;-82
2023/04/17 00:52:06;;;;;;;7.63;6.20;;;;;;;4.50;100.00;93232.81;2530813;23;20039;-82
2023/04/17 00:53:17;;;;;;;7.13;6.05;;;;;;;4.52;100.00;93232.44;2518730;23;20003;-83
2023/04/17 00:54:26;;;;;;;8.98;6.28;;;;;;;4.54;100.00;93232.84;2522765;23;20037;-83
2023/04/17 00:55:30;;;;;;;6.63;5.88;;;;;;;4.53;100.00;93218.84;2521178;23;20010;-83
2023/04/17 00:56:31;;;;;;;8.82;6.25;;;;;;;4.47;100.00;93224.88;2530788;23;20012;-82
2023/04/17 00:57:33;;;;;;;9.07;6.60;;;;;;;4.55;100.00;93223.75;2542121;23;20448;-82
2023/04/17 00:58:36;;;;;;;6.18;5.57;;;;;;;4.52;100.00;93225.28;2518937;23;20008;-83
2023/04/17 00:59:38;;;;;;;8.50;6.60;;;;;;;4.50;100.00;93229.44;2519438;23;20624;-83
2023/04/17 01:00:39;;;;;;;7.30;5.97;;;;;;;4.56;100.00;93225.28;2518865;23;20381;-82
2023/04/17 01:01:40;;;;;;;6.65;5.95;;;;;;;4.60;100.00;93225.28;2531044;23;20009;-83
2023/04/17 01:02:41;;;;;;;6.07;5.47;;;;;;;4.59;100.00;93226.44;2530233;23;20414;-82
2023/04/17 01:03:43;;;;;;;6.63;5.82;;;;;;;4.53;100.00;93218.84;2530613;23;20072;-83
2023/04/17 01:04:44;;;;;;;8.45;6.35;;;;;;;4.53;100.00;93220.75;2531178;23;20123;-83
2023/04/17 01:05:49;;;;;;;8.68;6.63;;;;;;;4.60;100.00;93220.00;2530563;23;20013;-83
2023/04/17 01:06:52;;;;;;;8.95;6.78;;;;;;;4.80;100.00;93219.28;2532610;23;20013;-81
2023/04/17 01:07:54;;;;;;;8.68;7.13;;;;;;;4.65;100.00;93216.97;2542965;23;20017;-81
2023/04/17 01:08:57;;;;;;;8.02;6.57;;;;;;;4.64;100.00;93226.81;2543749;23;20048;-83
2023/04/17 01:09:58;;;;;;;8.82;7.03;;;;;;;4.61;100.00;93221.50;2554675;23;20318;-82
2023/04/17 01:10:59;;;;;;;9.32;7.53;;;;;;;4.54;100.00;93217.72;2555368;23;19997;-82
2023/04/17 01:12:19;;;;;;;11.32;7.97;;;;;;;4.55;100.00;93215.81;2555617;23;20009;-83
2023/04/17 01:13:20;;;;;;;;;;;;;;;4.47;100.00;93215.03;2535487;23;20009;-82
2023/04/17 01:14:21;;;;;;;9.82;7.43;;;;;;;4.55;100.00;93210.53;2530874;23;19905;-84
2023/04/17 01:15:22;;;;;;;11.75;8.27;;;;;;;4.52;100.00;93216.56;2542609;23;20354;-82
2023/04/17 01:16:23;;;;;;;11.30;8.88;;;;;;;4.54;100.00;93220.38;2529841;23;20017;-82
2023/04/17 01:17:25;;;;;;;12.80;8.60;;;;;;;4.57;100.00;93216.22;2518599;23;20012;-82
2023/04/17 01:18:26;;;;;;;14.77;9.77;;;;;;;4.57;100.00;93221.50;2518811;23;20013;-82
2023/04/17 01:19:28;;;;;;;17.38;10.10;;;;;;;4.53;100.00;93216.19;2531240;23;20006;-82
2023/04/17 01:20:30;;;;;;;16.45;9.52;;;;;;;4.51;100.00;93213.16;2543045;23;20041;-84
2023/04/17 01:21:31;;;;;;;15.98;10.05;;;;;;;4.49;100.00;93218.09;2531202;23;20005;-82
2023/04/17 01:22:32;;;;;;;20.48;9.80;;;;;;;4.54;100.00;93215.06;2543052;23;20001;-82
2023/04/17 01:23:44;;;;;;;17.27;10.50;;;;;;;4.52;100.00;93217.34;2518042;23;20010;-82
2023/04/17 01:24:48;;;;;;;21.10;10.30;;;;;;;4.49;100.00;93215.44;2523326;23;20457;-82
2023/04/17 01:25:50;;;;;;;28.30;9.45;;;;;;;4.52;100.00;93219.22;2531797;23;20371;-83
2023/04/17 01:26:51;;;;;;;19.98;10.10;;;;;;;4.47;100.00;93215.03;2530826;23;20010;-83
2023/04/17 01:27:52;;;;;;;18.63;9.98;;;;;;;4.49;100.00;93212.78;2543141;23;20001;-82
2023/04/17 01:28:57;;;;;;;14.10;10.15;;;;;;;4.53;100.00;93218.84;2542138;23;20409;-82
2023/04/17 01:29:58;;;;;;;13.40;9.82;;;;;;;4.50;100.00;93218.84;2530767;23;20010;-82
2023/04/17 01:31:02;;;;;;;16.02;9.93;;;;;;;4.63;100.00;93214.72;2536740;23;20017;-82
2023/04/17 01:32:04;;;;;;;14.00;10.18;;;;;;;4.62;100.00;93218.50;2555678;23;20019;-82
2023/04/17 01:33:04;;;;;;;14.02;9.73;;;;;;;4.63;100.00;93212.06;2554948;23;20517;-81
2023/04/17 01:34:05;;;;;;;13.32;9.68;;;;;;;4.59;100.00;93221.13;2542205;23;20024;-83
2023/04/17 01:35:07;;;;;;;13.60;10.02;;;;;;;4.56;100.00;93217.31;2530385;23;20348;-81
2023/04/17 01:36:08;;;;;;;12.45;9.95;;;;;;;4.57;100.00;93212.81;2531850;23;20006;-82
2023/04/17 01:37:09;;;;;;;14.25;10.50;;;;;;;4.60;100.00;93215.44;2555747;23;20001;-83
2023/04/17 01:38:10;;;;;;;13.05;9.93;;;;;;;4.59;100.00;93211.28;2555532;23;20442;-82
2023/04/17 01:39:11;;;;;;;14.27;10.90;;;;;;;4.60;100.00;93214.69;2542820;23;20016;-82
2023/04/17 01:40:12;;;;;;;12.20;9.68;;;;;;;4.57;100.00;93215.47;2555354;23;20032;-83
2023/04/17 01:41:13;;;;;;;15.38;9.65;;;;;;;4.57;100.00;93208.28;2542410;23;20017;-82
2023/04/17 01:42:14;;;;;;;13.55;10.02;;;;;;;4.58;100.00;93215.09;2530780;23;20468;-83
2023/04/17 01:43:16;;;;;;;14.23;9.98;;;;;;;4.58;100.00;93216.97;2542727;23;20009;-83
2023/04/17 01:44:17;;;;;;;14.18;9.93;;;;;;;4.59;100.00;93215.84;2542704;23;20512;-82
2023/04/17 01:45:21;;;;;;;13.80;10.07;;;;;;;4.61;100.00;93218.84;2554469;23;20012;-82
2023/04/17 01:46:22;;;;;;;12.57;8.93;;;;;;;4.61;100.00;93219.63;2555011;23;20023;-82
2023/04/17 01:47:23;;;;;;;12.57;9.35;;;;;;;4.59;100.00;93221.13;2542476;23;20019;-83
2023/04/17 01:48:24;;;;;;;11.55;9.10;;;;;;;4.62;100.00;93215.84;2530431;23;20013;-83
2023/04/17 01:49:25;;;;;;;14.05;9.45;;;;;;;4.63;100.00;93219.25;2542929;23;20001;-83
2023/04/17 01:50:27;;;;;;;11.77;8.65;;;;;;;4.63;100.00;93216.59;2542417;23;20001;-82
2023/04/17 01:51:28;;;;;;;13.85;8.82;;;;;;;4.60;100.00;93212.03;2542984;23;19998;-82
2023/04/17 01:52:29;;;;;;;12.27;8.45;;;;;;;4.63;100.00;93216.59;2542943;23;20005;-82
2023/04/17 01:53:31;;;;;;;12.20;9.18;;;;;;;4.61;100.00;93216.19;2542238;23;20120;-83
2023/04/17 01:54:32;;;;;;;11.82;9.10;;;;;;;4.66;100.00;93216.63;2542753;23;20085;-82
2023/04/17 01:55:33;;;;;;;10.15;8.27;;;;;;;4.69;100.00;93217.75;2554565;23;20005;-82
2023/04/17 01:56:34;;;;;;;11.05;8.57;;;;;;;4.71;100.00;93212.84;2542352;23;20010;-83
2023/04/17 01:57:36;;;;;;;13.00;9.07;;;;;;;4.70;100.00;93219.28;2530613;23;20006;-83
2023/04/17 01:58:37;;;;;;;11.95;9.02;;;;;;;4.66;100.00;93213.97;2542718;23;20041;-83
2023/04/17 01:59:39;;;;;;;12.90;8.90;;;;;;;4.64;100.00;93213.56;2530401;23;20006;-83
2023/04/17 02:00:41;;;;;;;11.27;8.23;;;;;;;4.65;100.00;93217.72;2542245;23;20011;-83
2023/04/17 02:01:44;;;;;;;12.88;8.43;;;;;;;4.64;100.00;93216.22;2555190;23;20004;-84
2023/04/17 02:02:45;;;;;;;11.50;8.45;;;;;;;4.60;100.00;93212.03;2543017;23;20008;-82
2023/04/17 02:03:46;;;;;;;12.50;8.55;;;;;;;4.62;100.00;93215.09;2542710;23;20008;-83
2023/04/17 02:04:48;;;;;;;10.98;8.32;;;;;;;4.69;100.00;93209.78;2555130;23;20008;-83
2023/04/17 02:05:53;;;;;;;10.68;8.30;;;;;;;4.64;100.00;93213.56;2542437;23;20052;-81
2023/04/17 02:06:54;;;;;;;11.65;7.80;;;;;;;4.63;100.00;93213.97;2542960;23;20385;-82
2023/04/17 02:07:55;;;;;;;11.00;8.88;;;;;;;4.65;100.00;93209.03;2530225;23;20357;-81
2023/04/17 02:08:58;;;;;;;12.15;8.48;;;;;;;4.60;100.00;93206.75;2530148;23;20358;-83
2023/04/17 02:09:59;;;;;;;10.48;8.10;;;;;;;4.64;100.00;93207.53;2530613;23;20588;-81
2023/04/17 02:11:01;;;;;;;10.98;8.55;;;;;;;4.62;100.00;93209.81;2530801;23;20401;-82
2023/04/17 02:12:02;;;;;;;10.48;8.32;;;;;;;4.59;100.00;93213.19;2542538;23;20448;-82
2023/04/17 02:13:03;;;;;;;11.23;7.95;;;;;;;4.60;100.00;93206.75;2554496;23;20047;-83
2023/04/17 02:14:05;;;;;;;11.18;7.88;;;;;;;4.63;100.00;93204.13;2554390;23;20005;-82
2023/04/17 02:15:06;;;;;;;9.43;7.53;;;;;;;4.60;100.00;93201.47;2542072;23;20006;-81
2023/04/17 02:16:08;;;;;;;10.60;8.25;;;;;;;4.59;100.00;93206.00;2555261;23;20008;-82
2023/04/17 02:17:09;;;;;;;9.73;7.53;;;;;;;4.59;100.00;93202.59;2554960;23;20028;-82
2023/04/17 02:18:10;;;;;;;10.50;7.68;;;;;;;4.64;100.00;93204.88;2542797;23;20386;-83
2023/04/17 02:30:54;;;;;;;;;;;;;;;4.60;100.00;93212.03;2576354;22;20463;-82
2023/04/17 02:31:55;;;;;;;12.45;8.73;;;;;;;4.67;100.00;93207.53;2570817;23;20357;-84
2023/04/17 02:32:56;;;;;;;11.25;9.02;;;;;;;4.66;100.00;93197.34;2570973;23;20351;-83
2023/04/17 02:33:57;;;;;;;14.30;9.70;;;;;;;4.68;100.00;93200.34;2557936;23;20087;-82
2023/04/17 02:34:59;;;;;;;12.80;8.95;;;;;;;4.67;100.00;93206.78;2533313;23;20009;-82
2023/04/17 02:36:01;;;;;;;12.85;9.65;;;;;;;4.67;100.00;93204.88;2533846;23;20002;-83
2023/04/17 02:37:02;;;;;;;12.43;9.35;;;;;;;4.68;100.00;93203.00;2546869;23;20005;-82
2023/04/17 02:38:03;;;;;;;13.40;8.82;;;;;;;4.71;100.00;93212.84;2558947;23;20008;-82
2023/04/17 02:39:04;;;;;;;13.23;9.38;;;;;;;4.73;100.00;93202.63;2546245;23;20076;-83
2023/04/17 02:40:06;;;;;;;12.88;9.07;;;;;;;4.67;100.00;93204.88;2546394;23;20413;-84
2023/04/17 02:41:07;;;;;;;10.57;8.55;;;;;;;4.69;100.00;93207.16;2546260;23;20005;-83
2023/04/17 02:42:11;;;;;;;13.57;9.75;;;;;;;4.66;100.00;93211.31;2546009;23;20378;-83
2023/04/17 02:43:12;;;;;;;15.27;9.60;;;;;;;4.70;100.00;93206.78;2535029;23;20099;-82
2023/04/17 02:44:14;;;;;;;16.73;9.68;;;;;;;4.70;100.00;93206.03;2533830;23;20002;-82
2023/04/17 02:45:15;;;;;;;13.30;9.70;;;;;;;4.68;100.00;93209.03;2558448;23;20076;-82
2023/04/17 02:46:16;;;;;;;14.02;10.00;;;;;;;4.66;100.00;93210.56;2546536;23;20420;-83
2023/04/17 02:47:19;;;;;;;14.13;9.57;;;;;;;4.66;100.00;93211.31;2558616;23;20394;-82
2023/04/17 02:48:21;;;;;;;14.80;9.82;;;;;;;4.64;100.00;93210.16;2534106;23;20005;-83
2023/04/17 02:49:22;;;;;;;14.90;10.05;;;;;;;4.67;100.00;93198.84;2558189;23;20012;-83
2023/04/17 02:50:23;;;;;;;13.77;9.95;;;;;;;4.67;100.00;93202.25;2546077;23;20063;-82
2023/04/17 02:51:25;;;;;;;14.57;10.27;;;;;;;4.69;100.00;93205.25;2545880;23;20005;-82
2023/04/17 02:52:28;;;;;;;15.52;10.02;;;;;;;4.69;100.00;93210.56;2545511;23;20444;-82
2023/04/17 02:53:29;;;;;;;14.98;10.00;;;;;;;4.63;100.00;93206.75;2534902;23;20357;-83
2023/04/17 02:54:30;;;;;;;14.73;9.88;;;;;;;4.66;100.00;93210.56;2533425;23;20005;-83
2023/04/17 02:55:31;;;;;;;15.77;10.82;;;;;;;4.76;100.00;93204.53;2533344;23;20017;-82
2023/04/17 02:56:32;;;;;;;16.17;11.02;;;;;;;4.66;100.00;93208.66;2546237;23;20093;-83
2023/04/17 02:57:33;;;;;;;13.52;9.82;;;;;;;4.68;100.00;93203.75;2546084;23;20056;-83
2023/04/17 02:58:34;;;;;;;14.75;10.90;;;;;;;4.64;100.00;93202.22;2558568;23;20008;-83
2023/04/17 02:59:35;;;;;;;16.00;11.25;;;;;;;4.69;100.00;93202.59;2545737;23;20011;-82
2023/04/17 03:00:39;;;;;;;15.25;10.65;;;;;;;4.71;100.00;93204.91;2534059;23;20016;-83
2023/04/17 03:01:41;;;;;;;17.67;11.25;;;;;;;4.73;100.00;93206.03;2534918;23;20002;-83
2023/04/17 03:02:42;;;;;;;15.40;11.52;;;;;;;4.69;100.00;93207.16;2546471;23;20005;-82
2023/04/17 03:03:43;;;;;;;16.42;11.02;;;;;;;4.68;100.00;93203.00;2558299;23;20375;-83
2023/04/17 03:04:44;;;;;;;14.88;10.73;;;;;;;4.67;100.00;93207.53;2546245;23;20387;-83
2023/04/17 03:05:45;;;;;;;18.05;11.50;;;;;;;4.68;100.00;93208.28;2545464;23;20002;-83
2023/04/17 03:06:46;;;;;;;15.43;10.98;;;;;;;4.65;100.00;93199.19;2533787;23;20049;-82
2023/04/17 03:07:50;;;;;;;15.55;10.35;;;;;;;4.66;100.00;93205.28;2545898;23;20005;-81
2023/04/17 03:08:52;;;;;;;14.88;11.13;;;;;;;4.69;100.00;93201.84;2547837;23;20009;-82
2023/04/17 03:09:56;;;;;;;14.82;10.95;;;;;;;4.66;100.00;93203.38;2558183;23;20298;-83
2023/04/17 03:10:59;;;;;;;16.35;11.25;;;;;;;4.79;100.00;93206.44;2545181;23;20485;-83
2023/04/17 03:12:00;;;;;;;15.32;10.40;;;;;;;4.77;100.00;93200.72;2535107;23;20532;-81
2023/04/17 03:13:02;;;;;;;16.02;11.07;;;;;;;4.76;100.00;93202.63;2546064;23;20005;-83
2023/04/17 03:14:03;;;;;;;15.68;10.65;;;;;;;4.80;100.00;93205.28;2547016;23;20533;-82
2023/04/17 03:15:05;;;;;;;14.57;10.82;;;;;;;4.71;100.00;93194.31;2545392;23;20001;-82
2023/04/17 03:16:07;;;;;;;18.95;10.63;;;;;;;4.69;100.00;93202.59;2534494;23;20013;-83
2023/04/17 03:17:08;;;;;;;14.60;10.02;;;;;;;4.72;100.00;93201.88;2533794;23;20009;-82
2023/04/17 03:18:09;;;;;;;14.57;10.27;;;;;;;4.68;100.00;93203.00;2533888;23;20433;-82
2023/04/17 03:19:10;;;;;;;12.23;9.60;;;;;;;4.75;100.00;93205.66;2533310;23;20571;-83
2023/04/17 03:20:11;;;;;;;13.20;9.75;;;;;;;4.72;100.00;93206.41;2533798;23;20044;-82
2023/04/17 03:21:12;;;;;;;12.80;9.88;;;;;;;4.73;100.00;93198.06;2533551;23;20040;-83
2023/04/17 03:22:13;;;;;;;13.85;10.32;;;;;;;4.68;100.00;93203.00;2534410;23;20053;-82
2023/04/17 03:23:14;;;;;;;14.68;9.98;;;;;;;4.65;100.00;93201.09;2533890;23;20060;-84
2023/04/17 03:24:16;;;;;;;14.75;10.48;;;;;;;4.61;100.00;93206.41;2534076;23;20002;-83
2023/04/17 03:25:17;;;;;;;15.98;10.95;;;;;;;4.63;100.00;93203.38;2532908;23;20009;-82
2023/04/17 03:26:18;;;;;;;18.13;10.52;;;;;;;4.61;100.00;93210.91;2545886;23;20575;-82
2023/04/17 03:27:23;;;;;;;15.90;11.20;;;;;;;4.57;100.00;93196.94;2545943;23;20005;-82
2023/04/17 03:28:24;;;;;;;15.82;11.23;;;;;;;4.58;100.00;93214.31;2535144;23;20017;-84
2023/04/17 03:29:25;;;;;;;15.68;11.18;;;;;;;4.55;100.00;93213.16;2533925;23;20001;-84
2023/04/17 03:30:29;;;;;;;15.18;10.48;;;;;;;4.59;100.00;93200.72;2533832;23;20405;-82
2023/04/17 03:31:30;;;;;;;15.52;10.90;;;;;;;4.56;100.00;93212.03;2556493;23;20021;-83
2023/04/17 03:32:31;;;;;;;14.93;10.57;;;;;;;4.60;100.00;93209.41;2542973;23;20014;-83
2023/04/17 03:33:32;;;;;;;13.73;10.38;;;;;;;4.55;100.00;93203.34;2531395;23;20061;-84
2023/04/17 03:34:33;;;;;;;12.70;10.10;;;;;;;4.55;100.00;93203.34;2531150;23;20038;-83
2023/04/17 03:35:34;;;;;;;14.85;11.07;;;;;;;4.58;100.00;93209.03;2530480;23;20445;-84
2023/04/17 03:36:35;;;;;;;13.45;10.27;;;;;;;4.52;100.00;93209.41;2543706;23;20005;-82
2023/04/17 03:37:36;;;;;;;15.45;10.75;;;;;;;4.56;100.00;93209.38;2554498;23;20076;-82
2023/04/17 03:38:39;;;;;;;14.25;10.57;;;;;;;4.55;100.00;93213.16;2543221;23;20460;-84
2023/04/17 03:39:42;;;;;;;14.20;10.32;;;;;;;4.53;100.00;93210.91;2531612;23;20397;-82
2023/04/17 03:40:46;;;;;;;16.75;11.23;;;;;;;4.55;100.00;93206.00;2531717;23;20329;-83
2023/04/17 03:41:47;;;;;;;17.13;11.07;;;;;;;4.54;100.00;93212.41;2544601;23;20005;-84
2023/04/17 03:42:49;;;;;;;14.45;10.85;;;;;;;4.63;100.00;93213.97;2554946;23;20108;-84
2023/04/17 03:43:50;;;;;;;15.15;11.05;;;;;;;4.62;100.00;93207.91;2542987;23;20009;-82
2023/04/17 03:44:51;;;;;;;14.77;11.10;;;;;;;4.69;100.00;93215.84;2531075;23;20014;-83
2023/04/17 03:45:54;;;;;;;16.10;11.38;;;;;;;4.66;100.00;93210.56;2554935;23;20005;-82
2023/04/17 03:46:55;;;;;;;13.98;10.60;;;;;;;4.66;100.00;93210.56;2543982;23;20500;-83
2023/04/17 03:47:58;;;;;;;16.02;11.73;;;;;;;4.64;100.00;93202.97;2531256;23;20041;-84
2023/04/17 03:49:00;;;;;;;17.27;11.80;;;;;;;4.65;100.00;93214.31;2543589;23;20017;-84
2023/04/17 03:50:01;;;;;;;16.60;11.30;;;;;;;4.61;100.00;93213.56;2531161;23;20457;-84
2023/04/17 03:51:03;;;;;;;15.18;11.40;;;;;;;4.61;100.00;93218.84;2542996;23;20092;-83
2023/04/17 03:52:04;;;;;;;19.27;12.82;;;;;;;4.57;100.00;93210.94;2543431;23;20432;-84
2023/04/17 03:53:05;;;;;;;17.33;12.15;;;;;;;4.62;100.00;93204.50;2543800;23;20010;-84
2023/04/17 03:54:08;;;;;;;19.30;13.23;;;;;;;4.57;100.00;93212.81;2543359;23;20421;-84
2023/04/17 03:55:11;;;;;;;20.08;13.27;;;;;;;4.58;100.00;93219.63;2531032;23;20500;-83
2023/04/17 03:56:12;;;;;;;17.33;12.00;;;;;;;4.63;100.00;93208.66;2543439;23;20005;-83
2023/04/17 03:57:14;;;;;;;18.08;12.38;;;;;;;4.62;100.00;93217.75;2542732;23;20028;-83
2023/04/17 03:58:15;;;;;;;19.25;12.32;;;;;;;4.63;100.00;93212.06;2530688;23;20117;-84
2023/04/17 03:59:16;;;;;;;17.30;11.75;;;;;;;4.65;100.00;93206.38;2530931;23;20141;-84
2023/04/17 04:00:17;;;;;;;20.83;12.98;;;;;;;4.63;100.00;93206.00;2530967;23;20480;-83
2023/04/17 04:01:18;;;;;;;18.88;12.55;;;;;;;4.63;100.00;93206.75;2531759;23;20018;-82
2023/04/17 04:02:19;;;;;;;20.48;13.45;;;;;;;4.62;100.00;93213.19;2531297;23;20010;-83
2023/04/17 04:03:20;;;;;;;20.13;13.43;;;;;;;4.63;100.00;93211.31;2542947;23;20013;-82
2023/04/17 04:04:22;;;;;;;20.05;13.38;;;;;;;4.61;100.00;93211.69;2530737;23;20638;-82
2023/04/17 04:05:22;;;;;;;19.90;13.15;;;;;;;4.63;100.00;93212.06;2530796;23;20037;-84
2023/04/17 04:06:24;;;;;;;19.25;12.90;;;;;;;4.66;100.00;93208.66;2531145;23;20002;-83
2023/04/17 04:07:25;;;;;;;20.33;12.60;;;;;;;4.64;100.00;93207.53;2531422;23;20085;-83
2023/04/17 04:08:26;;;;;;;19.77;12.77;;;;;;;4.66;100.00;93213.22;2543406;23;20047;-83
2023/04/17 04:09:27;;;;;;;19.63;14.00;;;;;;;4.66;100.00;93210.56;2542927;23;20139;-82
2023/04/17 04:10:28;;;;;;;19.35;13.27;;;;;;;4.69;100.00;93209.78;2554584;23;20009;-82
2023/04/17 04:11:29;;;;;;;20.63;14.27;;;;;;;4.68;100.00;93205.63;2530414;23;20065;-83
2023/04/17 04:12:30;;;;;;;19.58;13.48;;;;;;;4.67;100.00;93212.06;2531026;23;20492;-83
2023/04/17 04:13:32;;;;;;;23.75;13.63;;;;;;;4.67;100.00;93214.72;2543390;23;20392;-84
2023/04/17 04:14:33;;;;;;;22.90;13.82;;;;;;;4.64;100.00;93213.56;2555322;23;20425;-83
2023/04/17 04:15:34;;;;;;;19.40;13.52;;;;;;;4.75;100.00;93219.66;2542850;23;20009;-82
2023/04/17 04:16:35;;;;;;;20.77;14.32;;;;;;;4.66;100.00;93215.88;2542630;23;20061;-83
2023/04/17 04:17:36;;;;;;;22.52;14.70;;;;;;;4.65;100.00;93216.97;2542178;23;20464;-83
2023/04/17 04:18:37;;;;;;;23.63;14.15;;;;;;;4.73;100.00;93213.22;2542862;23;20009;-83
2023/04/17 04:19:38;;;;;;;22.02;13.73;;;;;;;4.84;100.00;93215.88;2542900;23;20010;-82
2023/04/17 04:20:41;;;;;;;19.55;13.68;;;;;;;4.75;100.00;93214.38;2542612;23;20013;-82
2023/04/17 04:21:44;;;;;;;17.80;12.88;;;;;;;4.85;100.00;93218.16;2542862;23;20052;-84
2023/04/17 04:22:47;;;;;;;18.17;13.10;;;;;;;4.87;100.00;93215.88;2543210;23;20429;-83
2023/04/17 04:23:48;;;;;;;19.50;13.07;;;;;;;4.82;100.00;93218.91;2542998;23;20009;-83
2023/04/17 04:24:52;;;;;;;22.02;13.55;;;;;;;4.77;100.00;93221.91;2530478;23;20006;-82
2023/04/17 04:25:55;;;;;;;16.10;12.20;;;;;;;4.77;100.00;93221.91;2542916;23;20006;-84
2023/04/17 04:27:03;;;;;;;20.15;12.95;;;;;;;4.75;100.00;93222.31;2543312;23;20029;-82
2023/04/17 04:28:04;;;;;;;19.65;13.10;;;;;;;4.72;100.00;93222.28;2533455;23;20021;-83
2023/04/17 04:29:05;;;;;;;20.20;12.65;;;;;;;4.68;100.00;93221.53;2542265;23;20024;-82
2023/04/17 04:30:09;;;;;;;19.02;13.32;;;;;;;4.65;100.00;93214.31;2542369;23;20002;-83
2023/04/17 04:31:10;;;;;;;20.00;12.88;;;;;;;4.63;100.00;93232.47;2555054;23;20092;-82
2023/04/17 04:32:12;;;;;;;26.63;17.38;;;;;;;4.61;100.00;93224.94;2543476;23;20398;-82
2023/04/17 04:33:21;;;;;;;25.92;15.98;;;;;;;4.58;100.00;93230.22;2555323;23;20526;-82
2023/04/17 04:34:24;;;;;;;22.40;14.73;;;;;;;4.61;100.00;93222.28;2546123;23;20538;-83
2023/04/17 04:35:29;;;;;;;18.25;13.02;;;;;;;4.64;100.00;93226.06;2524270;23;20014;-83
2023/04/17 04:36:30;;;;;;;19.02;13.02;;;;;;;4.61;100.00;93235.50;2526120;23;20776;-84
2023/04/17 04:37:31;;;;;;;20.58;13.43;;;;;;;4.67;100.00;93223.41;2525969;23;20078;-84
2023/04/17 04:38:32;;;;;;;19.90;13.55;;;;;;;4.64;100.00;93223.41;2526118;23;20357;-84
2023/04/17 04:39:33;;;;;;;18.58;12.98;;;;;;;4.65;100.00;93222.28;2522804;23;20022;-84
2023/04/17 04:40:36;;;;;;;20.42;12.93;;;;;;;4.62;100.00;93233.63;2538608;23;20014;-82
2023/04/17 04:41:37;;;;;;;16.67;12.80;;;;;;;4.64;100.00;93229.44;2538803;23;20041;-82
2023/04/17 04:42:48;;;;;;;19.65;13.32;;;;;;;4.70;100.00;93221.94;2526011;23;20045;-83
2023/04/17 04:43:49;;;;;;;18.02;13.38;;;;;;;4.70;100.00;93225.31;2542509;23;20060;-83
2023/04/17 04:44:51;;;;;;;19.42;13.93;;;;;;;4.71;100.00;93223.44;2539270;23;20794;-84
2023/04/17 04:45:52;;;;;;;19.35;13.07;;;;;;;4.77;100.00;93229.88;2538587;23;20010;-84
2023/04/17 04:46:54;;;;;;;19.55;13.05;;;;;;;4.73;100.00;93219.25;2539101;23;20009;-84
2023/04/17 04:47:56;;;;;;;17.02;12.60;;;;;;;4.70;100.00;93227.22;2539421;23;20740;-84
2023/04/17 04:48:59;;;;;;;17.98;12.80;;;;;;;4.65;100.00;93230.97;2538992;23;20015;-83
2023/04/17 04:50:02;;;;;;;20.50;13.50;;;;;;;4.62;100.00;93228.34;2527403;23;20006;-84
2023/04/17 04:51:03;;;;;;;17.67;12.85;;;;;;;4.62;100.00;93228.34;2527536;23;20014;-84
2023/04/17 04:52:11;;;;;;;16.02;11.68;;;;;;;4.65;100.00;93223.03;2538539;23;20013;-83
2023/04/17 04:53:12;;;;;;;15.70;11.70;;;;;;;4.67;100.00;93233.25;2552999;23;20317;-83
2023/04/17 04:54:13;;;;;;;17.13;12.18;;;;;;;4.62;100.00;93231.72;2552042;23;20032;-83
2023/04/17 04:55:14;;;;;;;15.55;11.85;;;;;;;4.68;100.00;93224.16;2538852;23;20009;-84
2023/04/17 04:56:15;;;;;;;17.20;12.45;;;;;;;4.61;100.00;93230.22;2540007;23;20076;-81
2023/04/17 04:57:16;;;;;;;15.88;12.07;;;;;;;4.60;100.00;93230.56;2551830;23;20005;-82
2023/04/17 04:58:17;;;;;;;17.73;12.65;;;;;;;4.65;100.00;93228.31;2539654;23;20006;-83
2023/04/17 04:59:18;;;;;;;16.70;12.30;;;;;;;4.65;100.00;93236.25;2528114;23;20057;-83